航空気象通報

ウインドサーファーのための航空気象通報による風予報です。

2/13-2/15の航空気象通報

2017年02月13日 23時11分39秒 | TAF
羽田空港
TAF RJTT 131105Z 1312/1418 34012KT 9999 FEW030 BKN050
日本時間13日21時-15日03時:340度から12ノットの風


静岡空港
TAF RJNS 131105Z 1312/1418 27014KT 9999 FEW030
TEMPO 1403/1409 27018G28KT
日本時間13日21時-15日03時:270度から14ノットの風
但し、13日12-18時の間:ときどき270度から18ノット、突風28ノット


福岡空港
TAF RJFF 131106Z 1312/1418 17005KT 9000 FEW030 BKN045
BECMG 1315/1317 32011KT
BECMG 1412/1415 14005KT
日本時間13日21-24時:170度から5ノットの風
14日00-02時:風が変化
02-21時:320度から11ノットの風
21-24時:風が変化
15日00-03時:140度から5ノットの風


那覇空港
TAF ROAH 131106Z 1312/1418 02012KT 9999 FEW035 BKN045
日本時間13日21時-15日03時:020度から12ノットの風


石垣空港
TAF ROIG 131108Z 1312/1418 03013KT 9999 FEW040
日本時間13日21時-15日03時:030度から13ノットの風


マウイのカフルイ空港
PHOG 131225Z 1312/1412 20017G28KT P6SM FEW050
FM131900 20018G25KT P6SM FEW050
FM140500 20015KT P6SM FEW050 AMD LTD TO VIS AND WIND TIL 131600
ハワイ時間13日02-09時:200度から17ノット、突風28ノット
09-19時:200度から18ノット、突風25ノット
19時-14日02時:200度から15ノットの風


サイパン空港
TAF PGSN 131126Z 1312/1412 04014G20KT P6SM VCSH FEW009 SCT020 BKN040
TEMPO 1312/1316 04020G28KT 4SM SHRA SCT009 BKN014 OVC025
FM131600 04014G20KT P6SM VCSH FEW011 SCT017 BKN040
TEMPO 1316/1320 04020G28KT 4SM SHRA SCT009 BKN014 OVC025
マリアナ時間13日22時-14日02時:040度から14ノット、突風20ノット
02-22時:040度から14ノット、突風20ノット
但し、13日22時-14日06時の間:ときどき040度から20ノット、突風28ノット

但し、13日22時-14日06時の間:ときどき
ジャンル:
お天気
コメント   この記事についてブログを書く
この記事をはてなブックマークに追加
« 2/12-2/14の航空気象通報 | トップ | 2/15-2/17の航空気象通報 »
最近の画像もっと見る

コメントを投稿

ブログ作成者から承認されるまでコメントは反映されません。

TAF」カテゴリの最新記事

トラックバック

この記事のトラックバック  Ping-URL
ブログ作成者から承認されるまでトラックバックは反映されません。
  • 30日以上前の記事に対するトラックバックは受け取らないよう設定されております。
  • 送信元の記事内容が半角英数のみのトラックバックは受け取らないよう設定されております。
  • このブログへのリンクがない記事からのトラックバックは受け取らないよう設定されております。
  • ※ブログ管理者のみ、編集画面で設定の変更が可能です。